sensor_id;sensor_type;location;lat;lon;timestamp;P1;durP1;ratioP1;P2;durP2;ratioP2
21517;SDS011;61765;45.794;24.150;2023-05-27T03:27:36;9.68;;;6.47;;
21517;SDS011;61765;45.794;24.150;2023-05-27T03:35:46;9.40;;;7.20;;
21517;SDS011;61765;45.794;24.150;2023-05-27T03:43:55;9.88;;;7.43;;
21517;SDS011;61765;45.794;24.150;2023-05-27T03:52:01;8.90;;;6.88;;
21517;SDS011;61765;45.794;24.150;2023-05-27T04:00:11;11.82;;;7.13;;
21517;SDS011;61765;45.794;24.150;2023-05-27T04:08:26;9.80;;;6.72;;
21517;SDS011;61765;45.794;24.150;2023-05-27T04:16:34;8.20;;;6.75;;
21517;SDS011;61765;45.794;24.150;2023-05-27T04:24:43;8.73;;;6.43;;
21517;SDS011;61765;45.794;24.150;2023-05-27T04:32:54;9.55;;;6.72;;
21517;SDS011;61765;45.794;24.150;2023-05-27T04:41:00;10.00;;;7.50;;
21517;SDS011;61765;45.794;24.150;2023-05-27T04:49:31;9.45;;;6.60;;
21517;SDS011;61765;45.794;24.150;2023-05-27T04:57:36;9.40;;;7.15;;
21517;SDS011;61765;45.794;24.150;2023-05-27T05:05:47;7.80;;;6.00;;
21517;SDS011;61765;45.794;24.150;2023-05-27T05:13:53;8.27;;;6.15;;
21517;SDS011;61765;45.794;24.150;2023-05-27T05:22:02;6.35;;;5.75;;
21517;SDS011;61765;45.794;24.150;2023-05-27T05:30:08;8.77;;;7.85;;
21517;SDS011;61765;45.794;24.150;2023-05-27T05:38:17;9.75;;;7.53;;
21517;SDS011;61765;45.794;24.150;2023-05-27T05:46:23;11.00;;;7.15;;
21517;SDS011;61765;45.794;24.150;2023-05-27T05:54:32;10.80;;;6.88;;
21517;SDS011;61765;45.794;24.150;2023-05-27T06:02:37;10.10;;;6.38;;
21517;SDS011;61765;45.794;24.150;2023-05-27T06:10:47;10.13;;;7.25;;
21517;SDS011;61765;45.794;24.150;2023-05-27T06:18:53;6.78;;;5.95;;
21517;SDS011;61765;45.794;24.150;2023-05-27T06:27:01;6.50;;;5.78;;
21517;SDS011;61765;45.794;24.150;2023-05-27T06:35:07;9.52;;;5.75;;
21517;SDS011;61765;45.794;24.150;2023-05-27T06:43:16;5.88;;;4.88;;
21517;SDS011;61765;45.794;24.150;2023-05-27T06:51:31;8.07;;;5.35;;
21517;SDS011;61765;45.794;24.150;2023-05-27T06:59:40;11.27;;;5.85;;
21517;SDS011;61765;45.794;24.150;2023-05-27T07:07:45;6.47;;;5.38;;
21517;SDS011;61765;45.794;24.150;2023-05-27T07:15:54;7.30;;;5.65;;
21517;SDS011;61765;45.794;24.150;2023-05-27T07:24:00;8.20;;;5.53;;
21517;SDS011;61765;45.794;24.150;2023-05-27T07:32:10;7.22;;;5.60;;
21517;SDS011;61765;45.794;24.150;2023-05-27T07:40:17;6.35;;;5.75;;
21517;SDS011;61765;45.794;24.150;2023-05-27T07:48:25;7.63;;;6.22;;
21517;SDS011;61765;45.794;24.150;2023-05-27T07:56:31;6.55;;;5.53;;
21517;SDS011;61765;45.794;24.150;2023-05-27T08:04:40;6.88;;;5.88;;
21517;SDS011;61765;45.794;24.150;2023-05-27T08:12:59;9.53;;;5.57;;
21517;SDS011;61765;45.794;24.150;2023-05-27T08:21:15;12.35;;;6.20;;
21517;SDS011;61765;45.794;24.150;2023-05-27T08:29:41;12.13;;;7.60;;
21517;SDS011;61765;45.794;24.150;2023-05-27T08:38:24;7.72;;;5.97;;
21517;SDS011;61765;45.794;24.150;2023-05-27T08:46:47;7.82;;;5.68;;
21517;SDS011;61765;45.794;24.150;2023-05-27T08:54:57;8.20;;;5.35;;
21517;SDS011;61765;45.794;24.150;2023-05-27T09:03:03;7.57;;;5.50;;
21517;SDS011;61765;45.794;24.150;2023-05-27T09:11:21;6.93;;;5.70;;
21517;SDS011;61765;45.794;24.150;2023-05-27T09:19:29;7.88;;;5.43;;
21517;SDS011;61765;45.794;24.150;2023-05-27T09:27:38;6.68;;;5.68;;
21517;SDS011;61765;45.794;24.150;2023-05-27T09:35:48;8.77;;;5.70;;
21517;SDS011;61765;45.794;24.150;2023-05-27T09:43:56;5.93;;;5.13;;
21517;SDS011;61765;45.794;24.150;2023-05-27T09:52:05;7.63;;;5.80;;
21517;SDS011;61765;45.794;24.150;2023-05-27T10:00:15;6.82;;;5.35;;
21517;SDS011;61765;45.794;24.150;2023-05-27T10:08:27;6.95;;;5.65;;
21517;SDS011;61765;45.794;24.150;2023-05-27T10:16:35;7.35;;;5.85;;
21517;SDS011;61765;45.794;24.150;2023-05-27T10:24:41;9.75;;;5.53;;
21517;SDS011;61765;45.794;24.150;2023-05-27T10:32:55;12.18;;;5.80;;
21517;SDS011;61765;45.794;24.150;2023-05-27T10:41:01;6.35;;;5.05;;
21517;SDS011;61765;45.794;24.150;2023-05-27T10:49:12;7.85;;;5.55;;
21517;SDS011;61765;45.794;24.150;2023-05-27T10:57:19;6.97;;;5.32;;
21517;SDS011;61765;45.794;24.150;2023-05-27T11:05:30;11.60;;;6.97;;
21517;SDS011;61765;45.794;24.150;2023-05-27T11:13:39;7.55;;;5.03;;
21517;SDS011;61765;45.794;24.150;2023-05-27T11:21:52;7.27;;;5.13;;
21517;SDS011;61765;45.794;24.150;2023-05-27T11:29:57;6.30;;;5.25;;
21517;SDS011;61765;45.794;24.150;2023-05-27T11:38:15;6.45;;;5.65;;
21517;SDS011;61765;45.794;24.150;2023-05-27T11:46:21;7.60;;;5.63;;
21517;SDS011;61765;45.794;24.150;2023-05-27T11:54:30;9.50;;;5.70;;
21517;SDS011;61765;45.794;24.150;2023-05-27T12:02:41;6.47;;;5.05;;
21517;SDS011;61765;45.794;24.150;2023-05-27T12:10:50;8.20;;;4.60;;
21517;SDS011;61765;45.794;24.150;2023-05-27T12:18:57;7.90;;;4.72;;
21517;SDS011;61765;45.794;24.150;2023-05-27T12:27:05;7.40;;;5.20;;
21517;SDS011;61765;45.794;24.150;2023-05-27T12:35:11;7.05;;;4.90;;
21517;SDS011;61765;45.794;24.150;2023-05-27T12:43:19;8.75;;;5.20;;
21517;SDS011;61765;45.794;24.150;2023-05-27T12:51:26;9.65;;;5.30;;
21517;SDS011;61765;45.794;24.150;2023-05-27T12:59:35;7.57;;;4.25;;
21517;SDS011;61765;45.794;24.150;2023-05-27T13:07:41;10.88;;;5.40;;
21517;SDS011;61765;45.794;24.150;2023-05-27T13:16:02;10.50;;;5.18;;
21517;SDS011;61765;45.794;24.150;2023-05-27T13:24:11;9.88;;;5.65;;
21517;SDS011;61765;45.794;24.150;2023-05-27T13:32:21;7.00;;;4.97;;
21517;SDS011;61765;45.794;24.150;2023-05-27T13:40:28;5.07;;;3.63;;
21517;SDS011;61765;45.794;24.150;2023-05-27T13:48:36;6.70;;;4.65;;
21517;SDS011;61765;45.794;24.150;2023-05-27T13:56:42;5.80;;;4.70;;
21517;SDS011;61765;45.794;24.150;2023-05-27T14:04:50;7.78;;;5.57;;
21517;SDS011;61765;45.794;24.150;2023-05-27T14:12:58;9.82;;;6.60;;
21517;SDS011;61765;45.794;24.150;2023-05-27T14:21:07;6.70;;;5.13;;
21517;SDS011;61765;45.794;24.150;2023-05-27T14:29:12;8.98;;;5.55;;
21517;SDS011;61765;45.794;24.150;2023-05-27T14:37:21;7.68;;;5.25;;
21517;SDS011;61765;45.794;24.150;2023-05-27T14:45:26;8.85;;;4.47;;
21517;SDS011;61765;45.794;24.150;2023-05-27T14:53:35;7.32;;;5.30;;
21517;SDS011;61765;45.794;24.150;2023-05-27T15:01:40;7.72;;;4.97;;
21517;SDS011;61765;45.794;24.150;2023-05-27T15:09:49;6.57;;;4.45;;
21517;SDS011;61765;45.794;24.150;2023-05-27T15:17:54;6.07;;;4.93;;
21517;SDS011;61765;45.794;24.150;2023-05-27T15:26:03;7.72;;;4.50;;
21517;SDS011;61765;45.794;24.150;2023-05-27T15:34:08;8.35;;;5.90;;
21517;SDS011;61765;45.794;24.150;2023-05-27T15:42:16;7.22;;;5.80;;
21517;SDS011;61765;45.794;24.150;2023-05-27T15:50:22;6.93;;;5.43;;
21517;SDS011;61765;45.794;24.150;2023-05-27T15:58:30;8.35;;;5.30;;
21517;SDS011;61765;45.794;24.150;2023-05-27T16:06:35;6.88;;;5.82;;
21517;SDS011;61765;45.794;24.150;2023-05-27T16:14:44;9.90;;;5.53;;
21517;SDS011;61765;45.794;24.150;2023-05-27T16:22:49;7.53;;;6.05;;
21517;SDS011;61765;45.794;24.150;2023-05-27T16:30:57;7.75;;;5.45;;
21517;SDS011;61765;45.794;24.150;2023-05-27T16:39:03;9.52;;;7.20;;
21517;SDS011;61765;45.794;24.150;2023-05-27T16:47:12;9.32;;;6.55;;
21517;SDS011;61765;45.794;24.150;2023-05-27T16:55:17;9.27;;;6.18;;
21517;SDS011;61765;45.794;24.150;2023-05-27T17:03:26;10.13;;;5.85;;
21517;SDS011;61765;45.794;24.150;2023-05-27T17:11:32;12.48;;;8.73;;
21517;SDS011;61765;45.794;24.150;2023-05-27T17:19:40;10.65;;;7.20;;
21517;SDS011;61765;45.794;24.150;2023-05-27T17:27:47;11.48;;;7.15;;
21517;SDS011;61765;45.794;24.150;2023-05-27T17:35:56;9.48;;;6.72;;
21517;SDS011;61765;45.794;24.150;2023-05-27T17:44:01;10.02;;;6.97;;
21517;SDS011;61765;45.794;24.150;2023-05-27T17:52:09;7.85;;;6.18;;
21517;SDS011;61765;45.794;24.150;2023-05-27T18:00:22;8.63;;;6.20;;
21517;SDS011;61765;45.794;24.150;2023-05-27T18:08:30;9.73;;;7.53;;
21517;SDS011;61765;45.794;24.150;2023-05-27T18:16:36;8.77;;;6.47;;
21517;SDS011;61765;45.794;24.150;2023-05-27T18:24:44;12.75;;;8.52;;
21517;SDS011;61765;45.794;24.150;2023-05-27T18:32:50;15.80;;;8.70;;
21517;SDS011;61765;45.794;24.150;2023-05-27T18:40:58;14.00;;;9.57;;
21517;SDS011;61765;45.794;24.150;2023-05-27T18:49:03;11.82;;;8.77;;
21517;SDS011;61765;45.794;24.150;2023-05-27T18:57:13;12.90;;;9.18;;
21517;SDS011;61765;45.794;24.150;2023-05-27T19:05:25;14.10;;;9.38;;
21517;SDS011;61765;45.794;24.150;2023-05-27T19:13:33;12.90;;;10.52;;
21517;SDS011;61765;45.794;24.150;2023-05-27T19:21:39;12.00;;;9.93;;
21517;SDS011;61765;45.794;24.150;2023-05-27T19:29:47;11.82;;;10.10;;
21517;SDS011;61765;45.794;24.150;2023-05-27T19:37:52;13.52;;;10.13;;
21517;SDS011;61765;45.794;24.150;2023-05-27T19:46:01;13.20;;;10.35;;
21517;SDS011;61765;45.794;24.150;2023-05-27T19:54:06;13.00;;;9.00;;
21517;SDS011;61765;45.794;24.150;2023-05-27T20:02:14;15.82;;;7.88;;
21517;SDS011;61765;45.794;24.150;2023-05-27T20:10:20;14.52;;;9.25;;
21517;SDS011;61765;45.794;24.150;2023-05-27T20:18:29;11.20;;;8.70;;
21517;SDS011;61765;45.794;24.150;2023-05-27T20:26:34;11.55;;;7.97;;
21517;SDS011;61765;45.794;24.150;2023-05-27T20:34:42;9.88;;;7.20;;
21517;SDS011;61765;45.794;24.150;2023-05-27T20:42:47;8.05;;;6.90;;
21517;SDS011;61765;45.794;24.150;2023-05-27T20:50:56;13.55;;;7.13;;
21517;SDS011;61765;45.794;24.150;2023-05-27T20:59:01;11.27;;;7.50;;
21517;SDS011;61765;45.794;24.150;2023-05-27T21:07:10;9.32;;;6.78;;
21517;SDS011;61765;45.794;24.150;2023-05-27T21:15:15;9.85;;;6.45;;
21517;SDS011;61765;45.794;24.150;2023-05-27T21:23:24;8.43;;;6.72;;
21517;SDS011;61765;45.794;24.150;2023-05-27T21:31:30;10.02;;;7.28;;
21517;SDS011;61765;45.794;24.150;2023-05-27T21:39:43;9.10;;;8.13;;
21517;SDS011;61765;45.794;24.150;2023-05-27T21:47:50;10.13;;;8.75;;
21517;SDS011;61765;45.794;24.150;2023-05-27T21:56:13;15.38;;;9.00;;
21517;SDS011;61765;45.794;24.150;2023-05-27T22:04:44;11.20;;;7.55;;
21517;SDS011;61765;45.794;24.150;2023-05-27T22:12:52;8.27;;;6.32;;
21517;SDS011;61765;45.794;24.150;2023-05-27T22:21:00;10.45;;;6.97;;
21517;SDS011;61765;45.794;24.150;2023-05-27T22:29:33;14.13;;;7.40;;
21517;SDS011;61765;45.794;24.150;2023-05-27T22:38:10;10.85;;;6.38;;
21517;SDS011;61765;45.794;24.150;2023-05-27T22:46:22;13.98;;;6.57;;
21517;SDS011;61765;45.794;24.150;2023-05-27T22:54:28;13.02;;;7.78;;
21517;SDS011;61765;45.794;24.150;2023-05-27T23:02:36;9.98;;;7.90;;
21517;SDS011;61765;45.794;24.150;2023-05-27T23:10:42;8.98;;;8.05;;
21517;SDS011;61765;45.794;24.150;2023-05-27T23:18:50;11.13;;;7.85;;
21517;SDS011;61765;45.794;24.150;2023-05-27T23:26:55;11.25;;;8.48;;
21517;SDS011;61765;45.794;24.150;2023-05-27T23:35:04;10.52;;;8.80;;
21517;SDS011;61765;45.794;24.150;2023-05-27T23:43:10;11.05;;;8.80;;
21517;SDS011;61765;45.794;24.150;2023-05-27T23:51:18;11.60;;;10.07;;
21517;SDS011;61765;45.794;24.150;2023-05-27T23:59:24;12.55;;;9.82;;
